Time;durP1;ratioP1;P1;durP2;ratioP2;P2;SDS_P1;SDS_P2;PMS_P1;PMS_P2;Temp;Humidity;BMP_temperature;BMP_pressure;BME280_temperature;BME280_humidity;BME280_pressure;Samples;Min_cycle;Max_cycle;Signal;HPM_P1;HPM_P2
2021/12/09 00:01:13;;;;;;;;;;;-3276.30;90.80;;;;;;6203565;28;19918;-55
2021/12/09 00:04:15;;;;;;;;;;;-3276.40;90.40;;;;;;6212666;28;19913;-50
2021/12/09 00:07:16;;;;;;;;;;;-3276.30;90.50;;;;;;6205381;28;19982;-53
2021/12/09 00:10:17;;;;;;;;;;;-3276.30;90.50;;;;;;6227543;28;19917;-56
2021/12/09 00:13:18;;;;;;;;;;;-3276.40;90.70;;;;;;6260960;28;19913;-51
2021/12/09 00:16:18;;;;;;;;;;;-3276.50;90.90;;;;;;6227472;28;19944;-51
2021/12/09 00:19:19;;;;;;;;;;;-3276.40;90.60;;;;;;6228253;28;19984;-51
2021/12/09 00:22:20;;;;;;;;;;;-3276.40;90.70;;;;;;6232357;28;19936;-51
2021/12/09 00:25:21;;;;;;;;;;;-3276.40;90.70;;;;;;6226991;28;19920;-51
2021/12/09 00:28:22;;;;;;;;;;;-3276.40;90.70;;;;;;6210538;28;19917;-53
2021/12/09 00:31:23;;;;;;;;;;;-3276.50;90.80;;;;;;6227271;28;19918;-57
2021/12/09 00:34:33;;;;;;;;;;;-3276.50;90.90;;;;;;6191390;28;19941;-50
2021/12/09 00:37:39;;;;;;;;;;;-3276.50;90.90;;;;;;6202729;28;19924;-52
2021/12/09 00:40:39;;;;;;;;;;;-3276.40;90.90;;;;;;6186487;28;20020;-53
2021/12/09 00:43:41;;;;;;;;;;;-3276.50;90.90;;;;;;6243567;28;19914;-55
2021/12/09 00:46:42;;;;;;;;;;;-3276.50;90.90;;;;;;6210427;28;20004;-54
2021/12/09 00:49:42;;;;;;;;;;;-3276.50;91.10;;;;;;6241801;28;19917;-53
2021/12/09 00:52:43;;;;;;;;;;;-3276.40;90.80;;;;;;6205095;28;19909;-50
2021/12/09 00:55:44;;;;;;;;;;;-3276.40;91.00;;;;;;6250958;28;19916;-52
2021/12/09 00:58:45;;;;;;;;;;;-3276.40;91.10;;;;;;6217600;28;19928;-53
2021/12/09 01:01:46;;;;;;;;;;;-3276.40;91.20;;;;;;6218394;28;19984;-57
2021/12/09 01:04:46;;;;;;;;;;;-3276.30;91.40;;;;;;6213651;28;19916;-50
2021/12/09 01:07:47;;;;;;;;;;;-3276.30;91.50;;;;;;6219835;28;19938;-56
2021/12/09 01:10:48;;;;;;;;;;;-3276.40;91.60;;;;;;6218592;28;19913;-52
2021/12/09 01:13:49;;;;;;;;;;;-3276.30;91.60;;;;;;6232256;28;19909;-51
2021/12/09 01:16:49;;;;;;;;;;;-3276.30;91.60;;;;;;6225951;28;19909;-53
2021/12/09 01:19:52;;;;;;;;;;;-3276.30;91.60;;;;;;6225934;28;20012;-56
2021/12/09 01:22:54;;;;;;;;;;;-3276.30;91.70;;;;;;6216380;28;19945;-53
2021/12/09 01:26:03;;;;;;;;;;;-3276.30;91.80;;;;;;6220028;28;19913;-53
2021/12/09 01:29:13;;;;;;;;;;;-3276.30;91.90;;;;;;6208852;28;19920;-55
2021/12/09 01:32:13;;;;;;;;;;;-3276.30;92.00;;;;;;6239788;28;20052;-53
2021/12/09 01:35:15;;;;;;;;;;;-3276.30;92.10;;;;;;6217401;28;19913;-51
2021/12/09 01:38:17;;;;;;;;;;;-3276.30;92.10;;;;;;6233428;28;19935;-54
2021/12/09 01:41:17;;;;;;;;;;;-3276.30;91.90;;;;;;6217872;28;19917;-52
2021/12/09 01:44:18;;;;;;;;;;;-3276.30;91.80;;;;;;6216499;28;19921;-52
2021/12/09 01:47:19;;;;;;;;;;;-3276.30;91.90;;;;;;6203279;28;19913;-51
2021/12/09 01:50:20;;;;;;;;;;;-3276.30;92.00;;;;;;6215720;28;19913;-54
2021/12/09 01:53:21;;;;;;;;;;;-3276.40;92.00;;;;;;6226156;28;19920;-55
2021/12/09 01:56:23;;;;;;;;;;;-3276.50;91.20;;;;;;6235686;28;19914;-52
2021/12/09 01:59:24;;;;;;;;;;;-3276.40;91.40;;;;;;6238166;28;19909;-58
2021/12/09 02:02:24;;;;;;;;;;;-3276.40;91.80;;;;;;6231826;28;19935;-54
2021/12/09 02:05:27;;;;;;;;;;;-3276.40;91.90;;;;;;6227424;28;19928;-55
2021/12/09 02:08:28;;;;;;;;;;;-3276.30;91.90;;;;;;6209335;28;19992;-56
2021/12/09 02:11:28;;;;;;;;;;;-3276.30;92.00;;;;;;6218401;28;19913;-58
2021/12/09 02:14:29;;;;;;;;;;;-3276.30;92.20;;;;;;6216610;28;19920;-57
2021/12/09 02:17:31;;;;;;;;;;;-3276.30;92.30;;;;;;6181653;28;19984;-54
2021/12/09 02:20:37;;;;;;;;;;;-3276.40;92.30;;;;;;6222643;28;19913;-53
2021/12/09 02:23:40;;;;;;;;;;;-3276.40;92.30;;;;;;6248991;28;19913;-58
2021/12/09 02:26:42;;;;;;;;;;;-3276.40;92.30;;;;;;6229299;28;19909;-58
2021/12/09 02:29:42;;;;;;;;;;;-3276.40;92.40;;;;;;6224700;28;19913;-58
2021/12/09 02:32:45;;;;;;;;;;;-3276.40;92.40;;;;;;6238066;28;19926;-54
2021/12/09 02:35:46;;;;;;;;;;;-3276.40;92.40;;;;;;6224075;28;20000;-56
2021/12/09 02:38:49;;;;;;;;;;;-3276.40;92.40;;;;;;6208287;28;19909;-56
2021/12/09 02:41:50;;;;;;;;;;;-3276.40;92.50;;;;;;6236597;28;19924;-55
2021/12/09 02:44:51;;;;;;;;;;;-3276.40;92.50;;;;;;6217387;28;19917;-55
2021/12/09 02:47:52;;;;;;;;;;;-3276.40;92.50;;;;;;6216150;28;19913;-54
2021/12/09 02:50:53;;;;;;;;;;;-3276.40;92.50;;;;;;6198401;28;19925;-52
2021/12/09 02:53:54;;;;;;;;;;;-3276.40;92.40;;;;;;6225290;28;19913;-54
2021/12/09 02:56:57;;;;;;;;;;;-3276.40;92.30;;;;;;6241937;28;19968;-55
2021/12/09 02:59:57;;;;;;;;;;;-3276.40;92.40;;;;;;6253470;28;19967;-55
2021/12/09 03:02:59;;;;;;;;;;;-3276.40;92.40;;;;;;6234427;28;19962;-54
2021/12/09 03:06:00;;;;;;;;;;;-3276.40;92.40;;;;;;6228952;28;19913;-55
2021/12/09 03:09:08;;;;;;;;;;;-3276.40;92.50;;;;;;6262152;28;19952;-55
2021/12/09 03:12:12;;;;;;;;;;;-3276.50;92.60;;;;;;6229511;28;19909;-52
2021/12/09 03:15:13;;;;;;;;;;;-3276.50;92.70;;;;;;6238714;28;20003;-55
2021/12/09 03:18:14;;;;;;;;;;;-3276.40;92.70;;;;;;6254743;28;19910;-58
2021/12/09 03:21:22;;;;;;;;;;;-3276.50;92.40;;;;;;6235323;28;19913;-56
2021/12/09 03:24:23;;;;;;;;;;;-3276.50;92.50;;;;;;6267533;28;20311;-57
2021/12/09 03:27:24;;;;;;;;;;;-3276.50;92.50;;;;;;6228712;28;19913;-55
2021/12/09 03:30:24;;;;;;;;;;;-3276.50;92.40;;;;;;6250466;28;19917;-56
2021/12/09 03:33:25;;;;;;;;;;;-3276.50;92.40;;;;;;6257354;28;19965;-57
2021/12/09 03:36:28;;;;;;;;;;;-3276.50;92.40;;;;;;6214299;28;19917;-57
2021/12/09 03:39:32;;;;;;;;;;;-3276.40;92.50;;;;;;6189937;28;19920;-55
2021/12/09 03:42:33;;;;;;;;;;;-3276.40;92.50;;;;;;6204061;28;19909;-56
2021/12/09 03:45:34;;;;;;;;;;;-3276.40;92.50;;;;;;6204239;28;19948;-58
2021/12/09 03:48:35;;;;;;;;;;;-3276.40;92.50;;;;;;6227029;28;19917;-53
2021/12/09 03:51:35;;;;;;;;;;;-3276.40;92.50;;;;;;6227633;28;19916;-52
2021/12/09 03:54:37;;;;;;;;;;;-3276.40;92.60;;;;;;6212203;28;19909;-55
2021/12/09 03:57:37;;;;;;;;;;;-3276.40;92.60;;;;;;6211316;28;19944;-54
2021/12/09 04:00:38;;;;;;;;;;;-3276.40;92.50;;;;;;6241820;28;19957;-54
2021/12/09 04:03:39;;;;;;;;;;;-3276.40;92.60;;;;;;6219543;28;19913;-53
2021/12/09 04:06:40;;;;;;;;;;;-3276.50;92.50;;;;;;6240909;28;19995;-52
2021/12/09 04:09:41;;;;;;;;;;;-3276.50;92.40;;;;;;6228241;28;19909;-53
2021/12/09 04:12:42;;;;;;;;;;;-3276.60;92.10;;;;;;6241254;28;19913;-53
2021/12/09 04:15:42;;;;;;;;;;;-3276.50;92.20;;;;;;6247089;28;19913;-53
2021/12/09 04:18:44;;;;;;;;;;;-3276.60;92.10;;;;;;6228125;28;19925;-54
2021/12/09 04:21:45;;;;;;;;;;;-3276.60;91.90;;;;;;6248385;28;20003;-55
2021/12/09 04:24:46;;;;;;;;;;;-3276.50;92.20;;;;;;6240019;28;20004;-56
2021/12/09 04:27:49;;;;;;;;;;;-3276.50;92.30;;;;;;6227356;28;19909;-55
2021/12/09 04:30:50;;;;;;;;;;;-3276.50;92.50;;;;;;6239740;28;19909;-56
2021/12/09 04:33:50;;;;;;;;;;;-3276.50;92.60;;;;;;6266464;28;19964;-54
2021/12/09 04:36:52;;;;;;;;;;;-3276.50;92.60;;;;;;6232021;28;20000;-55
2021/12/09 04:39:52;;;;;;;;;;;-3276.60;92.50;;;;;;6243360;28;20007;-53
2021/12/09 04:42:53;;;;;;;;;;;-3276.60;92.50;;;;;;6227878;28;19967;-54
2021/12/09 04:45:54;;;;;;;;;;;-3276.50;92.50;;;;;;6230536;28;19913;-57
2021/12/09 04:48:55;;;;;;;;;;;-3276.50;92.60;;;;;;6230180;28;19909;-55
2021/12/09 04:51:57;;;;;;;;;;;-3276.50;92.70;;;;;;6225989;28;19914;-54
2021/12/09 04:54:58;;;;;;;;;;;-3276.50;92.80;;;;;;6202706;28;19914;-51
2021/12/09 04:57:59;;;;;;;;;;;-3276.50;92.80;;;;;;6218619;28;19929;-54
2021/12/09 05:01:01;;;;;;;;;;;-3276.50;92.90;;;;;;6226883;28;19955;-54
2021/12/09 05:04:03;;;;;;;;;;;-3276.50;92.90;;;;;;6240753;28;19956;-52
2021/12/09 05:07:04;;;;;;;;;;;-3276.50;93.00;;;;;;6241970;28;19917;-58
2021/12/09 05:10:05;;;;;;;;;;;-3276.60;93.00;;;;;;6209956;28;19909;-56
2021/12/09 05:13:06;;;;;;;;;;;-3276.60;93.00;;;;;;6209381;28;19910;-55
2021/12/09 05:16:08;;;;;;;;;;;-3276.60;93.00;;;;;;6225965;28;19920;-56
2021/12/09 05:19:08;;;;;;;;;;;-3276.60;93.00;;;;;;6233942;28;19909;-51
2021/12/09 05:22:09;;;;;;;;;;;-3276.60;93.00;;;;;;6220523;28;19917;-60
2021/12/09 05:25:10;;;;;;;;;;;-3276.60;93.00;;;;;;6233744;28;19940;-60
2021/12/09 05:28:15;;;;;;;;;;;-3276.60;93.10;;;;;;6223578;28;19913;-59
2021/12/09 05:34:37;;;;;;;;;;;-3276.70;93.10;;;;;;6258984;28;19944;-60
2021/12/09 05:37:38;;;;;;;;;;;-3276.70;93.10;;;;;;6238048;28;19917;-60
2021/12/09 05:40:40;;;;;;;;;;;-3276.70;93.10;;;;;;6236186;28;19917;-59
2021/12/09 05:43:41;;;;;;;;;;;-3276.70;93.10;;;;;;6209018;28;19924;-59
2021/12/09 05:46:43;;;;;;;;;;;-3276.70;93.00;;;;;;6217757;28;19919;-56
2021/12/09 05:49:46;;;;;;;;;;;-3276.70;93.00;;;;;;6233592;28;19913;-54
2021/12/09 05:52:46;;;;;;;;;;;-3276.70;92.90;;;;;;6217610;28;19925;-56
2021/12/09 05:55:47;;;;;;;;;;;-3276.70;92.90;;;;;;6230536;28;19913;-55
2021/12/09 05:58:48;;;;;;;;;;;-3276.70;93.00;;;;;;6221455;28;19985;-56
2021/12/09 06:01:49;;;;;;;;;;;-3276.70;93.00;;;;;;6197081;28;19920;-54
2021/12/09 06:04:50;;;;;;;;;;;-3276.70;93.10;;;;;;6235877;28;19913;-54
2021/12/09 06:07:51;;;;;;;;;;;-3276.70;93.10;;;;;;6238190;28;19917;-55
2021/12/09 06:10:52;;;;;;;;;;;-3276.70;93.10;;;;;;6213302;28;19967;-52
2021/12/09 06:13:53;;;;;;;;;;;-3276.70;93.20;;;;;;6226908;28;19936;-56
2021/12/09 06:16:53;;;;;;;;;;;-3276.70;93.20;;;;;;6234360;28;19913;-54
2021/12/09 06:19:54;;;;;;;;;;;-3276.70;93.20;;;;;;6196766;28;19924;-56
2021/12/09 06:22:55;;;;;;;;;;;-3276.70;93.20;;;;;;6240204;28;19913;-57
2021/12/09 06:25:56;;;;;;;;;;;-3276.70;93.20;;;;;;6208085;28;19935;-55
2021/12/09 06:28:57;;;;;;;;;;;-3276.70;93.20;;;;;;6227662;28;19910;-55
2021/12/09 06:31:58;;;;;;;;;;;-3276.70;93.20;;;;;;6223832;28;19909;-56
2021/12/09 06:34:58;;;;;;;;;;;-3276.70;93.20;;;;;;6214534;28;19913;-57
2021/12/09 06:38:00;;;;;;;;;;;-3276.70;93.20;;;;;;6208067;28;19913;-50
2021/12/09 06:41:02;;;;;;;;;;;-3276.70;93.30;;;;;;6214031;28;19917;-56
2021/12/09 06:44:04;;;;;;;;;;;0.00;93.20;;;;;;6212783;28;19965;-55
2021/12/09 06:47:04;;;;;;;;;;;0.00;93.20;;;;;;6200007;28;19913;-54
2021/12/09 06:50:07;;;;;;;;;;;0.00;93.20;;;;;;6200535;28;19960;-56
2021/12/09 06:53:09;;;;;;;;;;;0.00;93.20;;;;;;6216135;28;19910;-55
2021/12/09 06:56:09;;;;;;;;;;;0.00;93.20;;;;;;6222387;28;19933;-62
2021/12/09 06:59:10;;;;;;;;;;;0.00;93.20;;;;;;6214337;28;19917;-49
2021/12/09 07:02:11;;;;;;;;;;;0.00;93.10;;;;;;6221369;28;19917;-54
2021/12/09 07:05:13;;;;;;;;;;;0.00;93.10;;;;;;6216062;28;19936;-52
2021/12/09 07:08:14;;;;;;;;;;;0.00;93.10;;;;;;6224867;28;19971;-52
2021/12/09 07:11:16;;;;;;;;;;;0.00;93.00;;;;;;6225163;28;19952;-55
2021/12/09 07:14:18;;;;;;;;;;;0.00;93.00;;;;;;6220492;28;19916;-56
2021/12/09 07:17:20;;;;;;;;;;;0.00;92.80;;;;;;6207711;28;19913;-57
2021/12/09 07:20:23;;;;;;;;;;;0.10;92.90;;;;;;6212063;28;20169;-51
2021/12/09 07:23:23;;;;;;;;;;;0.10;92.80;;;;;;6232226;28;19909;-52
2021/12/09 07:26:24;;;;;;;;;;;0.10;92.90;;;;;;6232422;28;19917;-51
2021/12/09 07:29:25;;;;;;;;;;;0.10;92.90;;;;;;6197974;28;19914;-53
2021/12/09 07:32:26;;;;;;;;;;;0.10;92.90;;;;;;6207402;28;19909;-54
2021/12/09 07:35:30;;;;;;;;;;;0.10;92.90;;;;;;6234496;28;19933;-59
2021/12/09 07:38:31;;;;;;;;;;;0.10;93.00;;;;;;6240074;28;19920;-52
2021/12/09 07:41:32;;;;;;;;;;;0.10;93.00;;;;;;6206077;28;19956;-52
2021/12/09 07:44:32;;;;;;;;;;;0.10;93.00;;;;;;6224860;28;19909;-50
2021/12/09 07:47:33;;;;;;;;;;;0.20;92.90;;;;;;6211387;28;19913;-52
2021/12/09 07:50:34;;;;;;;;;;;0.20;93.00;;;;;;6221843;28;19917;-51
2021/12/09 07:53:35;;;;;;;;;;;0.20;92.90;;;;;;6227592;28;19989;-52
2021/12/09 07:56:36;;;;;;;;;;;0.20;92.90;;;;;;6215489;28;19921;-52
2021/12/09 07:59:36;;;;;;;;;;;0.30;92.90;;;;;;6226080;28;19960;-54
2021/12/09 08:02:37;;;;;;;;;;;0.20;92.90;;;;;;6243295;28;19914;-53
2021/12/09 08:05:39;;;;;;;;;;;0.20;92.90;;;;;;6203400;28;19909;-51
2021/12/09 08:08:40;;;;;;;;;;;0.20;92.90;;;;;;6217383;28;20003;-52
2021/12/09 08:11:43;;;;;;;;;;;0.20;92.90;;;;;;6230915;28;19935;-55
2021/12/09 08:14:44;;;;;;;;;;;0.20;92.90;;;;;;6212378;28;19917;-50
2021/12/09 08:17:57;;;;;;;;;;;0.30;92.90;;;;;;6224531;28;19936;-52
2021/12/09 08:21:00;;;;;;;;;;;0.30;92.80;;;;;;6228565;28;19918;-50
2021/12/09 08:24:01;;;;;;;;;;;0.30;92.90;;;;;;6227425;28;19909;-52
2021/12/09 08:27:02;;;;;;;;;;;0.30;92.90;;;;;;6208775;28;19924;-50
2021/12/09 08:30:06;;;;;;;;;;;0.30;92.60;;;;;;6233870;28;19958;-54
2021/12/09 08:33:07;;;;;;;;;;;0.30;92.40;;;;;;6247426;28;19992;-55
2021/12/09 08:36:08;;;;;;;;;;;0.30;92.70;;;;;;6226639;28;19913;-53
2021/12/09 08:39:09;;;;;;;;;;;0.30;92.60;;;;;;6219646;28;19914;-48
2021/12/09 08:42:09;;;;;;;;;;;0.30;92.70;;;;;;6221774;28;19917;-50
2021/12/09 08:45:11;;;;;;;;;;;0.30;92.70;;;;;;6207794;28;19924;-53
2021/12/09 08:48:12;;;;;;;;;;;0.30;92.70;;;;;;6235216;28;19909;-51
2021/12/09 08:51:14;;;;;;;;;;;0.30;92.80;;;;;;6216718;28;19996;-48
2021/12/09 08:54:15;;;;;;;;;;;0.30;92.80;;;;;;6223066;28;19967;-50
2021/12/09 08:57:16;;;;;;;;;;;0.30;92.80;;;;;;6216422;28;19949;-50
2021/12/09 09:00:17;;;;;;;;;;;0.40;92.90;;;;;;6209821;28;19949;-52
2021/12/09 09:03:18;;;;;;;;;;;0.40;92.80;;;;;;6260925;28;19913;-55
2021/12/09 09:06:19;;;;;;;;;;;0.40;92.80;;;;;;6222725;28;19936;-50
2021/12/09 09:09:19;;;;;;;;;;;0.40;92.80;;;;;;6218262;28;19916;-53
2021/12/09 09:12:20;;;;;;;;;;;0.40;92.90;;;;;;6201787;28;19916;-54
2021/12/09 09:15:22;;;;;;;;;;;0.30;92.90;;;;;;6224808;28;19972;-64
2021/12/09 09:18:23;;;;;;;;;;;0.30;93.00;;;;;;6193387;28;19916;-60
2021/12/09 09:21:25;;;;;;;;;;;0.30;93.10;;;;;;6209368;28;19983;-56
2021/12/09 09:24:26;;;;;;;;;;;0.30;93.00;;;;;;6229498;28;19953;-63
2021/12/09 09:27:27;;;;;;;;;;;0.30;93.10;;;;;;6215627;28;19909;-56
2021/12/09 09:30:34;;;;;;;;;;;0.40;93.20;;;;;;6226876;28;19952;-53
2021/12/09 09:33:35;;;;;;;;;;;0.40;93.20;;;;;;6233991;28;19913;-55
2021/12/09 09:36:39;;;;;;;;;;;0.40;93.20;;;;;;6218463;28;19913;-56
2021/12/09 09:39:43;;;;;;;;;;;0.40;93.20;;;;;;6250848;28;19914;-55
2021/12/09 09:45:44;;;;;;;;;;;0.50;93.20;;;;;;6241269;28;19917;-54
2021/12/09 09:48:46;;;;;;;;;;;0.40;93.20;;;;;;6232402;28;19913;-52
2021/12/09 09:51:47;;;;;;;;;;;0.50;93.20;;;;;;6217287;28;19913;-53
2021/12/09 09:54:48;;;;;;;;;;;0.50;93.30;;;;;;6239086;28;19920;-55
2021/12/09 09:57:49;;;;;;;;;;;0.50;93.20;;;;;;6221912;28;19940;-58
2021/12/09 10:00:51;;;;;;;;;;;0.50;93.20;;;;;;6215706;28;19917;-52
2021/12/09 10:03:58;;;;;;;;;;;0.60;93.30;;;;;;6223860;28;19963;-55
2021/12/09 10:07:00;;;;;;;;;;;0.60;93.20;;;;;;6221190;28;19931;-56
2021/12/09 10:10:01;;;;;;;;;;;0.60;93.20;;;;;;6237523;28;19913;-55
2021/12/09 10:13:03;;;;;;;;;;;0.60;93.20;;;;;;6223037;28;19947;-52
2021/12/09 10:16:14;;;;;;;;;;;0.60;93.20;;;;;;6184256;28;19909;-54
2021/12/09 10:19:16;;;;;;;;;;;0.60;93.20;;;;;;6227745;28;19989;-52
2021/12/09 10:22:20;;;;;;;;;;;0.60;93.20;;;;;;6224788;28;19920;-51
2021/12/09 10:25:23;;;;;;;;;;;0.60;93.20;;;;;;6212718;28;19910;-58
2021/12/09 10:28:25;;;;;;;;;;;0.70;93.20;;;;;;6205606;28;19952;-53
2021/12/09 10:31:28;;;;;;;;;;;0.70;93.20;;;;;;6233862;28;19913;-53
2021/12/09 10:37:35;;;;;;;;;;;0.70;93.10;;;;;;6257965;28;19956;-56
2021/12/09 10:40:36;;;;;;;;;;;0.80;93.10;;;;;;6224471;28;19917;-53
2021/12/09 10:43:47;;;;;;;;;;;0.80;93.00;;;;;;6245305;28;20176;-59
2021/12/09 10:46:53;;;;;;;;;;;0.80;93.00;;;;;;6224370;28;19909;-53
2021/12/09 10:50:11;;;;;;;;;;;0.80;93.00;;;;;;6230938;28;19940;-61
2021/12/09 10:56:30;;;;;;;;;;;0.80;93.00;;;;;;6242004;28;19967;-55
2021/12/09 10:59:30;;;;;;;;;;;0.80;93.00;;;;;;6212178;28;19941;-59
2021/12/09 11:02:31;;;;;;;;;;;0.80;93.00;;;;;;6215470;28;19918;-58
2021/12/09 11:05:33;;;;;;;;;;;0.80;93.00;;;;;;6204398;28;20107;-58
2021/12/09 11:08:50;;;;;;;;;;;0.80;92.90;;;;;;6206165;28;20008;-53
2021/12/09 11:11:55;;;;;;;;;;;0.90;92.80;;;;;;6216165;28;19916;-58
2021/12/09 11:15:01;;;;;;;;;;;0.80;92.60;;;;;;6210303;28;19920;-56
2021/12/09 11:18:07;;;;;;;;;;;0.90;92.80;;;;;;6227250;28;19956;-57
2021/12/09 11:21:19;;;;;;;;;;;0.90;92.80;;;;;;6204665;28;19972;-51
2021/12/09 11:24:21;;;;;;;;;;;0.90;92.70;;;;;;6205000;28;19910;-53
2021/12/09 11:27:23;;;;;;;;;;;0.90;92.70;;;;;;6209263;28;19941;-54
2021/12/09 11:30:25;;;;;;;;;;;0.90;92.70;;;;;;6205898;28;19928;-53
2021/12/09 11:33:36;;;;;;;;;;;0.90;92.40;;;;;;6211779;28;19971;-56
2021/12/09 11:36:38;;;;;;;;;;;0.90;92.60;;;;;;6215834;28;19924;-52
2021/12/09 11:39:39;;;;;;;;;;;0.90;92.50;;;;;;6218034;28;19956;-53
2021/12/09 11:42:54;;;;;;;;;;;0.90;92.60;;;;;;6212438;28;19917;-54
2021/12/09 11:45:57;;;;;;;;;;;1.00;92.60;;;;;;6223548;28;19913;-53
2021/12/09 11:48:58;;;;;;;;;;;0.90;92.50;;;;;;6236748;28;19932;-52
2021/12/09 11:51:59;;;;;;;;;;;0.90;92.50;;;;;;6209843;28;19913;-51
2021/12/09 11:55:03;;;;;;;;;;;0.90;92.30;;;;;;6243315;28;19913;-54
2021/12/09 11:58:17;;;;;;;;;;;0.90;92.30;;;;;;6210878;28;19955;-54
2021/12/09 12:11:36;;;;;;;;;;;0.80;92.80;;;;;;6251745;28;19963;-53
2021/12/09 12:14:44;;;;;;;;;;;0.80;92.90;;;;;;6208993;28;19909;-57
2021/12/09 12:24:58;;;;;;;;;;;0.80;93.10;;;;;;6238354;28;19964;-56
2021/12/09 12:28:18;;;;;;;;;;;0.80;93.10;;;;;;6263463;28;19915;-57
2021/12/09 12:41:21;;;;;;;;;;;0.80;93.30;;;;;;6216978;28;19913;-60
2021/12/09 12:44:21;;;;;;;;;;;0.80;93.30;;;;;;6208791;28;19956;-60
2021/12/09 12:47:26;;;;;;;;;;;0.80;93.40;;;;;;6229812;28;19944;-60
2021/12/09 12:50:27;;;;;;;;;;;0.90;93.40;;;;;;6226735;28;19953;-60
2021/12/09 12:53:36;;;;;;;;;;;0.80;93.40;;;;;;6243711;28;19912;-60
2021/12/09 12:56:39;;;;;;;;;;;0.80;93.40;;;;;;6228086;28;20268;-60
2021/12/09 12:59:42;;;;;;;;;;;0.80;93.40;;;;;;6246263;28;19916;-60
2021/12/09 13:06:14;;;;;;;;;;;0.80;93.30;;;;;;6258587;28;19932;-59
2021/12/09 13:09:25;;;;;;;;;;;0.80;93.40;;;;;;6212183;28;19920;-60
2021/12/09 13:12:42;;;;;;;;;;;0.80;93.60;;;;;;6216542;28;19913;-60
2021/12/09 13:16:03;;;;;;;;;;;0.80;93.60;;;;;;6254809;28;19940;-59
2021/12/09 13:22:11;;;;;;;;;;;0.90;93.70;;;;;;6265321;28;20000;-60
2021/12/09 13:25:28;;;;;;;;;;;0.90;93.70;;;;;;6250405;28;19943;-60
2021/12/09 13:28:36;;;;;;;;;;;0.90;93.70;;;;;;6215494;28;19944;-59
2021/12/09 13:31:47;;;;;;;;;;;0.90;93.70;;;;;;6198777;28;19918;-59
2021/12/09 13:35:03;;;;;;;;;;;0.90;93.70;;;;;;6232036;28;20000;-59
2021/12/09 13:47:44;;;;;;;;;;;0.80;93.60;;;;;;6248252;28;19928;-60
2021/12/09 13:50:55;;;;;;;;;;;0.80;93.60;;;;;;6230869;28;20007;-62
2021/12/09 13:54:24;;;;;;;;;;;0.80;93.40;;;;;;6211305;28;19913;-62
2021/12/09 13:57:29;;;;;;;;;;;0.80;93.10;;;;;;6196973;28;19997;-56
2021/12/09 14:00:40;;;;;;;;;;;0.80;92.80;;;;;;6240094;28;20004;-59
2021/12/09 14:03:41;;;;;;;;;;;0.80;92.80;;;;;;6237811;28;19909;-59
2021/12/09 14:06:56;;;;;;;;;;;0.80;92.90;;;;;;6226309;28;19982;-57
2021/12/09 14:10:04;;;;;;;;;;;0.80;93.00;;;;;;6206458;28;19917;-58
2021/12/09 14:13:11;;;;;;;;;;;0.80;93.10;;;;;;6225860;28;19909;-56
2021/12/09 14:16:37;;;;;;;;;;;0.70;93.10;;;;;;6242641;28;19909;-57
2021/12/09 14:22:58;;;;;;;;;;;0.70;93.30;;;;;;6247001;28;19945;-57
2021/12/09 14:26:00;;;;;;;;;;;0.70;93.40;;;;;;6221607;28;19935;-58
2021/12/09 14:29:01;;;;;;;;;;;0.70;93.50;;;;;;6236784;28;19914;-57
2021/12/09 14:32:06;;;;;;;;;;;0.70;93.40;;;;;;6235880;28;19909;-59
2021/12/09 14:35:07;;;;;;;;;;;0.70;93.40;;;;;;6217789;28;19937;-57
2021/12/09 14:38:09;;;;;;;;;;;0.60;93.20;;;;;;6215400;28;19913;-53
2021/12/09 14:41:27;;;;;;;;;;;0.70;93.40;;;;;;6244968;28;19940;-54
2021/12/09 14:44:28;;;;;;;;;;;0.70;93.20;;;;;;6186562;28;19964;-52
2021/12/09 14:47:29;;;;;;;;;;;0.60;93.20;;;;;;6206670;28;19996;-52
2021/12/09 14:50:34;;;;;;;;;;;0.60;93.10;;;;;;6245590;28;19913;-52
2021/12/09 14:53:37;;;;;;;;;;;0.60;93.10;;;;;;6252556;28;20383;-53
2021/12/09 14:56:40;;;;;;;;;;;0.60;93.10;;;;;;6214999;28;20052;-55
2021/12/09 14:59:43;;;;;;;;;;;0.60;93.10;;;;;;6245478;28;19909;-52
2021/12/09 15:02:49;;;;;;;;;;;0.60;93.30;;;;;;6231083;28;19924;-56
2021/12/09 15:05:57;;;;;;;;;;;0.60;93.50;;;;;;6253364;28;19909;-53
2021/12/09 15:09:20;;;;;;;;;;;0.60;93.50;;;;;;6230314;28;19910;-52
2021/12/09 15:12:22;;;;;;;;;;;0.60;93.70;;;;;;6220640;28;19963;-50
2021/12/09 15:15:27;;;;;;;;;;;0.50;93.80;;;;;;6232147;28;19916;-53
2021/12/09 15:18:29;;;;;;;;;;;0.50;93.90;;;;;;6249355;28;19909;-50
2021/12/09 15:21:30;;;;;;;;;;;0.50;94.00;;;;;;6245903;28;19935;-52
2021/12/09 15:24:31;;;;;;;;;;;0.50;94.10;;;;;;6231615;28;19913;-53
2021/12/09 15:27:50;;;;;;;;;;;0.50;94.20;;;;;;6265116;28;19920;-56
2021/12/09 15:31:01;;;;;;;;;;;0.40;94.30;;;;;;6224925;28;20047;-54
2021/12/09 15:34:19;;;;;;;;;;;0.40;94.40;;;;;;6233625;28;20382;-50
2021/12/09 15:37:22;;;;;;;;;;;0.40;94.50;;;;;;6219543;28;20002;-52
2021/12/09 15:40:23;;;;;;;;;;;0.40;94.50;;;;;;6212730;28;19917;-49
2021/12/09 15:43:25;;;;;;;;;;;0.40;94.50;;;;;;6213430;28;19933;-61
2021/12/09 15:46:26;;;;;;;;;;;0.40;94.60;;;;;;6206133;28;19909;-51
2021/12/09 15:49:28;;;;;;;;;;;0.30;94.60;;;;;;6233283;28;19924;-46
2021/12/09 15:52:34;;;;;;;;;;;0.30;94.60;;;;;;6227666;28;19959;-49
2021/12/09 15:55:40;;;;;;;;;;;0.40;94.60;;;;;;6235051;28;19909;-50
2021/12/09 15:58:41;;;;;;;;;;;0.50;94.20;;;;;;6183801;28;19969;-50
2021/12/09 16:01:44;;;;;;;;;;;0.40;94.10;;;;;;6202178;28;19918;-51
2021/12/09 16:04:45;;;;;;;;;;;0.40;94.20;;;;;;6197776;28;19917;-50
2021/12/09 16:07:46;;;;;;;;;;;0.40;94.10;;;;;;6203559;28;19916;-53
2021/12/09 16:10:48;;;;;;;;;;;0.40;94.30;;;;;;6202571;28;19917;-50
2021/12/09 16:13:54;;;;;;;;;;;0.40;94.30;;;;;;6203714;28;19937;-49
2021/12/09 16:16:59;;;;;;;;;;;0.40;94.30;;;;;;6173491;28;19913;-52
2021/12/09 16:20:03;;;;;;;;;;;0.40;94.40;;;;;;6202074;28;19910;-49
2021/12/09 16:23:05;;;;;;;;;;;0.40;94.40;;;;;;6202950;28;19916;-50
2021/12/09 16:26:07;;;;;;;;;;;0.30;94.40;;;;;;6200145;28;19941;-50
2021/12/09 16:29:07;;;;;;;;;;;0.30;94.50;;;;;;6169245;28;19961;-50
2021/12/09 16:32:08;;;;;;;;;;;0.30;94.50;;;;;;6202415;28;19914;-48
2021/12/09 16:35:11;;;;;;;;;;;0.30;94.50;;;;;;6205475;28;19914;-53
2021/12/09 16:38:13;;;;;;;;;;;0.30;94.60;;;;;;6224631;28;20008;-50
2021/12/09 16:41:14;;;;;;;;;;;0.30;94.60;;;;;;6186037;28;19921;-50
2021/12/09 16:44:15;;;;;;;;;;;0.30;94.60;;;;;;6202208;28;19914;-50
2021/12/09 16:47:16;;;;;;;;;;;0.30;94.60;;;;;;6187913;28;19913;-55
2021/12/09 16:50:18;;;;;;;;;;;0.30;94.70;;;;;;6216602;28;19918;-49
2021/12/09 16:53:22;;;;;;;;;;;0.30;94.70;;;;;;6190768;28;19913;-50
2021/12/09 16:59:26;;;;;;;;;;;0.30;94.70;;;;;;6247313;28;19913;-49
2021/12/09 17:02:28;;;;;;;;;;;0.30;94.70;;;;;;6217251;28;19916;-51
2021/12/09 17:05:28;;;;;;;;;;;0.30;94.60;;;;;;6210413;28;19920;-48
2021/12/09 17:08:29;;;;;;;;;;;0.30;94.60;;;;;;6224419;28;19913;-52
2021/12/09 17:11:32;;;;;;;;;;;0.30;94.60;;;;;;6239509;28;20008;-52
2021/12/09 17:14:34;;;;;;;;;;;0.30;94.60;;;;;;6225862;28;19933;-52
2021/12/09 17:17:35;;;;;;;;;;;0.30;94.60;;;;;;6210080;28;19909;-58
2021/12/09 17:20:36;;;;;;;;;;;0.30;94.60;;;;;;6225905;28;19936;-53
2021/12/09 17:23:37;;;;;;;;;;;0.20;94.60;;;;;;6207938;28;20094;-54
2021/12/09 17:26:38;;;;;;;;;;;0.20;94.60;;;;;;6211487;28;19914;-53
2021/12/09 17:29:39;;;;;;;;;;;0.20;94.60;;;;;;6230647;28;19909;-54
2021/12/09 17:32:41;;;;;;;;;;;0.30;94.70;;;;;;6248588;28;19913;-53
2021/12/09 17:35:42;;;;;;;;;;;0.20;94.60;;;;;;6233325;28;19908;-49
2021/12/09 17:38:43;;;;;;;;;;;0.20;94.50;;;;;;6194565;28;19909;-50
2021/12/09 17:41:51;;;;;;;;;;;0.20;94.50;;;;;;6243400;28;19936;-49
2021/12/09 17:44:52;;;;;;;;;;;0.30;94.50;;;;;;6233586;28;19916;-52
2021/12/09 17:47:55;;;;;;;;;;;0.20;94.50;;;;;;6212468;28;19953;-49
2021/12/09 17:51:00;;;;;;;;;;;0.20;94.50;;;;;;6228187;28;19938;-53
2021/12/09 17:54:01;;;;;;;;;;;0.20;94.50;;;;;;6215016;28;19917;-52
2021/12/09 17:57:02;;;;;;;;;;;0.20;94.50;;;;;;6190153;28;19948;-52
2021/12/09 18:00:05;;;;;;;;;;;0.30;94.60;;;;;;6204072;28;20024;-52
2021/12/09 18:03:12;;;;;;;;;;;0.30;94.30;;;;;;6209879;28;19948;-52
2021/12/09 18:06:14;;;;;;;;;;;0.30;94.40;;;;;;6189039;28;19928;-50
2021/12/09 18:09:15;;;;;;;;;;;0.30;94.40;;;;;;6235236;28;19910;-52
2021/12/09 18:12:17;;;;;;;;;;;0.30;94.40;;;;;;6212261;28;20028;-50
2021/12/09 18:15:20;;;;;;;;;;;0.30;94.40;;;;;;6214361;28;19920;-51
2021/12/09 18:18:22;;;;;;;;;;;0.30;94.40;;;;;;6235135;28;19916;-53
2021/12/09 18:21:23;;;;;;;;;;;0.30;94.40;;;;;;6217322;28;19912;-53
2021/12/09 18:24:24;;;;;;;;;;;0.30;94.50;;;;;;6220381;28;19915;-51
2021/12/09 18:27:25;;;;;;;;;;;0.30;94.50;;;;;;6215921;28;20003;-54
2021/12/09 18:30:28;;;;;;;;;;;0.30;94.50;;;;;;6219511;28;19915;-51
2021/12/09 18:33:29;;;;;;;;;;;0.30;94.50;;;;;;6231176;28;19916;-52
2021/12/09 18:36:30;;;;;;;;;;;0.30;94.50;;;;;;6210015;28;19921;-51
2021/12/09 18:39:36;;;;;;;;;;;0.30;94.50;;;;;;6208962;28;19913;-52